sensor_id;sensor_type;location;lat;lon;timestamp;temperature;humidity
12013;DHT22;6065;48.138;16.402;2023-10-08T00:00:22;21.00;70.30
12013;DHT22;6065;48.138;16.402;2023-10-08T00:03:09;21.00;70.30
12013;DHT22;6065;48.138;16.402;2023-10-08T00:05:36;20.90;70.10
12013;DHT22;6065;48.138;16.402;2023-10-08T00:08:05;21.00;70.90
12013;DHT22;6065;48.138;16.402;2023-10-08T00:10:42;21.00;70.30
12013;DHT22;6065;48.138;16.402;2023-10-08T00:13:09;20.90;70.10
12013;DHT22;6065;48.138;16.402;2023-10-08T00:15:36;20.90;70.20
12013;DHT22;6065;48.138;16.402;2023-10-08T00:18:17;20.90;70.20
12013;DHT22;6065;48.138;16.402;2023-10-08T00:20:44;20.90;70.40
12013;DHT22;6065;48.138;16.402;2023-10-08T00:23:24;20.90;70.60
12013;DHT22;6065;48.138;16.402;2023-10-08T00:25:51;20.90;70.80
12013;DHT22;6065;48.138;16.402;2023-10-08T00:28:18;20.90;71.00
12013;DHT22;6065;48.138;16.402;2023-10-08T00:30:46;20.90;71.30
12013;DHT22;6065;48.138;16.402;2023-10-08T00:33:13;20.80;71.50
12013;DHT22;6065;48.138;16.402;2023-10-08T00:35:40;20.90;71.70
12013;DHT22;6065;48.138;16.402;2023-10-08T00:38:08;20.80;71.80
12013;DHT22;6065;48.138;16.402;2023-10-08T00:40:42;20.90;72.70
12013;DHT22;6065;48.138;16.402;2023-10-08T00:43:11;20.90;72.10
12013;DHT22;6065;48.138;16.402;2023-10-08T00:45:38;20.80;72.00
12013;DHT22;6065;48.138;16.402;2023-10-08T00:48:09;20.80;72.00
12013;DHT22;6065;48.138;16.402;2023-10-08T00:50:36;20.90;72.00
12013;DHT22;6065;48.138;16.402;2023-10-08T00:53:09;20.90;71.90
12013;DHT22;6065;48.138;16.402;2023-10-08T00:55:48;20.90;72.00
12013;DHT22;6065;48.138;16.402;2023-10-08T00:58:18;20.90;71.90
12013;DHT22;6065;48.138;16.402;2023-10-08T01:00:50;20.90;71.60
12013;DHT22;6065;48.138;16.402;2023-10-08T01:03:18;20.90;71.50
12013;DHT22;6065;48.138;16.402;2023-10-08T01:05:45;21.00;71.60
12013;DHT22;6065;48.138;16.402;2023-10-08T01:08:13;21.00;71.60
12013;DHT22;6065;48.138;16.402;2023-10-08T01:10:43;21.00;71.60
12013;DHT22;6065;48.138;16.402;2023-10-08T01:13:14;21.00;71.80
12013;DHT22;6065;48.138;16.402;2023-10-08T01:15:46;21.00;72.00
12013;DHT22;6065;48.138;16.402;2023-10-08T01:18:16;21.00;72.20
12013;DHT22;6065;48.138;16.402;2023-10-08T01:20:51;21.00;72.40
12013;DHT22;6065;48.138;16.402;2023-10-08T01:23:19;21.00;72.50
12013;DHT22;6065;48.138;16.402;2023-10-08T01:25:48;21.00;72.60
12013;DHT22;6065;48.138;16.402;2023-10-08T01:28:18;20.90;72.70
12013;DHT22;6065;48.138;16.402;2023-10-08T01:30:51;20.90;72.90
12013;DHT22;6065;48.138;16.402;2023-10-08T01:33:19;20.90;73.10
12013;DHT22;6065;48.138;16.402;2023-10-08T01:35:54;20.90;73.10
12013;DHT22;6065;48.138;16.402;2023-10-08T01:38:22;20.90;73.30
12013;DHT22;6065;48.138;16.402;2023-10-08T01:40:49;20.80;73.30
12013;DHT22;6065;48.138;16.402;2023-10-08T01:43:17;20.80;73.40
12013;DHT22;6065;48.138;16.402;2023-10-08T01:45:44;20.80;73.50
12013;DHT22;6065;48.138;16.402;2023-10-08T01:48:14;20.80;73.60
12013;DHT22;6065;48.138;16.402;2023-10-08T01:50:45;20.80;73.70
12013;DHT22;6065;48.138;16.402;2023-10-08T01:53:13;20.80;73.80
12013;DHT22;6065;48.138;16.402;2023-10-08T01:55:42;20.80;73.80
12013;DHT22;6065;48.138;16.402;2023-10-08T01:58:14;20.70;73.80
12013;DHT22;6065;48.138;16.402;2023-10-08T02:00:42;20.70;73.90
12013;DHT22;6065;48.138;16.402;2023-10-08T02:03:10;20.70;74.70
12013;DHT22;6065;48.138;16.402;2023-10-08T02:05:37;20.70;74.00
12013;DHT22;6065;48.138;16.402;2023-10-08T02:08:07;20.70;74.10
12013;DHT22;6065;48.138;16.402;2023-10-08T02:10:34;20.70;73.90
12013;DHT22;6065;48.138;16.402;2023-10-08T02:13:03;20.70;74.10
12013;DHT22;6065;48.138;16.402;2023-10-08T02:15:30;20.70;74.10
12013;DHT22;6065;48.138;16.402;2023-10-08T02:17:57;20.70;74.00
12013;DHT22;6065;48.138;16.402;2023-10-08T02:20:24;20.70;74.20
12013;DHT22;6065;48.138;16.402;2023-10-08T02:22:53;20.70;74.30
12013;DHT22;6065;48.138;16.402;2023-10-08T02:25:19;20.70;74.40
12013;DHT22;6065;48.138;16.402;2023-10-08T02:27:46;20.70;74.30
12013;DHT22;6065;48.138;16.402;2023-10-08T02:30:15;20.70;74.40
12013;DHT22;6065;48.138;16.402;2023-10-08T02:32:43;20.70;74.60
12013;DHT22;6065;48.138;16.402;2023-10-08T02:35:10;20.70;74.70
12013;DHT22;6065;48.138;16.402;2023-10-08T02:37:38;20.70;75.10
12013;DHT22;6065;48.138;16.402;2023-10-08T02:40:06;20.70;75.30
12013;DHT22;6065;48.138;16.402;2023-10-08T02:42:42;20.70;75.40
12013;DHT22;6065;48.138;16.402;2023-10-08T02:45:10;20.70;75.60
12013;DHT22;6065;48.138;16.402;2023-10-08T02:47:41;20.60;75.80
12013;DHT22;6065;48.138;16.402;2023-10-08T02:50:10;20.60;75.90
12013;DHT22;6065;48.138;16.402;2023-10-08T02:52:42;20.60;76.10
12013;DHT22;6065;48.138;16.402;2023-10-08T02:55:10;20.50;76.20
12013;DHT22;6065;48.138;16.402;2023-10-08T02:57:48;20.50;76.30
12013;DHT22;6065;48.138;16.402;2023-10-08T03:00:19;20.50;76.50
12013;DHT22;6065;48.138;16.402;2023-10-08T03:02:47;20.40;76.60
12013;DHT22;6065;48.138;16.402;2023-10-08T03:05:14;20.50;76.80
12013;DHT22;6065;48.138;16.402;2023-10-08T03:07:44;20.50;77.00
12013;DHT22;6065;48.138;16.402;2023-10-08T03:10:16;20.40;77.10
12013;DHT22;6065;48.138;16.402;2023-10-08T03:12:44;20.40;77.20
12013;DHT22;6065;48.138;16.402;2023-10-08T03:15:13;20.40;77.50
12013;DHT22;6065;48.138;16.402;2023-10-08T03:17:54;20.40;77.80
12013;DHT22;6065;48.138;16.402;2023-10-08T03:20:23;20.40;77.90
12013;DHT22;6065;48.138;16.402;2023-10-08T03:23:08;20.40;78.10
12013;DHT22;6065;48.138;16.402;2023-10-08T03:25:38;20.40;78.30
12013;DHT22;6065;48.138;16.402;2023-10-08T03:28:08;20.40;78.40
12013;DHT22;6065;48.138;16.402;2023-10-08T03:30:38;20.40;78.50
12013;DHT22;6065;48.138;16.402;2023-10-08T03:33:17;20.40;78.70
12013;DHT22;6065;48.138;16.402;2023-10-08T03:35:49;20.40;78.80
12013;DHT22;6065;48.138;16.402;2023-10-08T03:38:18;20.40;78.90
12013;DHT22;6065;48.138;16.402;2023-10-08T03:40:48;20.40;78.90
12013;DHT22;6065;48.138;16.402;2023-10-08T03:43:15;20.30;78.90
12013;DHT22;6065;48.138;16.402;2023-10-08T03:45:49;20.30;78.90
12013;DHT22;6065;48.138;16.402;2023-10-08T03:48:20;20.30;78.90
12013;DHT22;6065;48.138;16.402;2023-10-08T03:50:48;20.40;79.10
12013;DHT22;6065;48.138;16.402;2023-10-08T03:53:22;20.30;79.10
12013;DHT22;6065;48.138;16.402;2023-10-08T03:55:49;20.30;79.00
12013;DHT22;6065;48.138;16.402;2023-10-08T03:58:17;20.40;79.10
12013;DHT22;6065;48.138;16.402;2023-10-08T04:00:53;20.30;79.20
12013;DHT22;6065;48.138;16.402;2023-10-08T04:03:35;20.30;79.20
12013;DHT22;6065;48.138;16.402;2023-10-08T04:06:23;20.30;79.20
12013;DHT22;6065;48.138;16.402;2023-10-08T04:08:55;20.30;79.20
12013;DHT22;6065;48.138;16.402;2023-10-08T04:11:41;20.30;79.20
12013;DHT22;6065;48.138;16.402;2023-10-08T04:14:17;20.30;79.50
12013;DHT22;6065;48.138;16.402;2023-10-08T04:16:44;20.20;79.40
12013;DHT22;6065;48.138;16.402;2023-10-08T04:19:12;20.20;79.40
12013;DHT22;6065;48.138;16.402;2023-10-08T04:21:43;20.20;79.40
12013;DHT22;6065;48.138;16.402;2023-10-08T04:24:11;20.30;79.60
12013;DHT22;6065;48.138;16.402;2023-10-08T04:26:40;20.20;79.50
12013;DHT22;6065;48.138;16.402;2023-10-08T04:29:08;20.20;79.50
12013;DHT22;6065;48.138;16.402;2023-10-08T04:31:35;20.20;79.50
12013;DHT22;6065;48.138;16.402;2023-10-08T04:34:09;20.20;79.50
12013;DHT22;6065;48.138;16.402;2023-10-08T04:36:42;20.20;79.70
12013;DHT22;6065;48.138;16.402;2023-10-08T04:39:10;20.20;79.90
12013;DHT22;6065;48.138;16.402;2023-10-08T04:41:41;20.20;79.90
12013;DHT22;6065;48.138;16.402;2023-10-08T04:44:09;20.20;80.00
12013;DHT22;6065;48.138;16.402;2023-10-08T04:46:40;20.20;80.20
12013;DHT22;6065;48.138;16.402;2023-10-08T04:49:13;20.20;80.30
12013;DHT22;6065;48.138;16.402;2023-10-08T04:51:55;20.20;80.50
12013;DHT22;6065;48.138;16.402;2023-10-08T04:54:25;20.10;80.60
12013;DHT22;6065;48.138;16.402;2023-10-08T04:56:55;20.10;80.70
12013;DHT22;6065;48.138;16.402;2023-10-08T04:59:23;20.10;80.80
12013;DHT22;6065;48.138;16.402;2023-10-08T05:01:58;20.10;80.90
12013;DHT22;6065;48.138;16.402;2023-10-08T05:04:44;20.10;81.00
12013;DHT22;6065;48.138;16.402;2023-10-08T05:07:23;20.10;81.10
12013;DHT22;6065;48.138;16.402;2023-10-08T05:10:22;20.10;81.10
12013;DHT22;6065;48.138;16.402;2023-10-08T05:13:10;20.10;81.20
12013;DHT22;6065;48.138;16.402;2023-10-08T05:15:41;20.10;81.20
12013;DHT22;6065;48.138;16.402;2023-10-08T05:18:15;20.20;81.40
12013;DHT22;6065;48.138;16.402;2023-10-08T05:20:49;20.20;81.40
12013;DHT22;6065;48.138;16.402;2023-10-08T05:23:30;20.20;81.50
12013;DHT22;6065;48.138;16.402;2023-10-08T05:26:19;20.20;81.60
12013;DHT22;6065;48.138;16.402;2023-10-08T05:28:56;20.20;81.70
12013;DHT22;6065;48.138;16.402;2023-10-08T05:31:48;20.20;81.70
12013;DHT22;6065;48.138;16.402;2023-10-08T05:34:38;20.10;81.90
12013;DHT22;6065;48.138;16.402;2023-10-08T05:37:16;20.20;82.10
12013;DHT22;6065;48.138;16.402;2023-10-08T05:40:11;20.20;82.00
12013;DHT22;6065;48.138;16.402;2023-10-08T05:43:07;20.20;82.10
12013;DHT22;6065;48.138;16.402;2023-10-08T05:45:48;20.20;82.30
12013;DHT22;6065;48.138;16.402;2023-10-08T05:48:39;20.20;82.20
12013;DHT22;6065;48.138;16.402;2023-10-08T05:51:10;20.20;82.30
12013;DHT22;6065;48.138;16.402;2023-10-08T05:53:49;20.20;82.50
12013;DHT22;6065;48.138;16.402;2023-10-08T05:56:25;20.20;82.30
12013;DHT22;6065;48.138;16.402;2023-10-08T05:59:06;20.20;82.30
12013;DHT22;6065;48.138;16.402;2023-10-08T06:01:43;20.20;82.40
12013;DHT22;6065;48.138;16.402;2023-10-08T06:04:11;20.30;82.30
12013;DHT22;6065;48.138;16.402;2023-10-08T06:07:07;20.20;82.40
12013;DHT22;6065;48.138;16.402;2023-10-08T06:09:38;20.20;82.50
12013;DHT22;6065;48.138;16.402;2023-10-08T06:12:07;20.20;82.50
12013;DHT22;6065;48.138;16.402;2023-10-08T06:14:45;20.20;82.60
12013;DHT22;6065;48.138;16.402;2023-10-08T06:17:29;20.20;82.50
12013;DHT22;6065;48.138;16.402;2023-10-08T06:20:29;20.20;82.80
12013;DHT22;6065;48.138;16.402;2023-10-08T06:22:55;20.30;82.90
12013;DHT22;6065;48.138;16.402;2023-10-08T06:25:28;20.30;82.50
12013;DHT22;6065;48.138;16.402;2023-10-08T06:27:57;20.30;82.40
12013;DHT22;6065;48.138;16.402;2023-10-08T06:30:24;20.30;82.40
12013;DHT22;6065;48.138;16.402;2023-10-08T06:32:54;20.30;82.60
12013;DHT22;6065;48.138;16.402;2023-10-08T06:35:21;20.30;82.60
12013;DHT22;6065;48.138;16.402;2023-10-08T06:37:53;20.40;82.60
12013;DHT22;6065;48.138;16.402;2023-10-08T06:40:24;20.30;82.60
12013;DHT22;6065;48.138;16.402;2023-10-08T06:43:08;20.40;82.60
12013;DHT22;6065;48.138;16.402;2023-10-08T06:45:40;20.40;82.70
12013;DHT22;6065;48.138;16.402;2023-10-08T06:48:07;20.40;82.70
12013;DHT22;6065;48.138;16.402;2023-10-08T06:50:34;20.50;82.50
12013;DHT22;6065;48.138;16.402;2023-10-08T06:53:02;20.50;82.60
12013;DHT22;6065;48.138;16.402;2023-10-08T06:55:33;20.50;82.70
12013;DHT22;6065;48.138;16.402;2023-10-08T06:58:01;20.50;82.60
12013;DHT22;6065;48.138;16.402;2023-10-08T07:00:32;20.60;83.00
12013;DHT22;6065;48.138;16.402;2023-10-08T07:03:05;20.70;82.60
12013;DHT22;6065;48.138;16.402;2023-10-08T07:05:33;20.70;82.60
12013;DHT22;6065;48.138;16.402;2023-10-08T07:08:02;20.70;82.80
12013;DHT22;6065;48.138;16.402;2023-10-08T07:10:32;20.80;82.90
12013;DHT22;6065;48.138;16.402;2023-10-08T07:12:59;20.80;83.10
12013;DHT22;6065;48.138;16.402;2023-10-08T07:15:28;20.80;82.90
12013;DHT22;6065;48.138;16.402;2023-10-08T07:17:57;20.90;83.20
12013;DHT22;6065;48.138;16.402;2023-10-08T07:20:34;20.90;83.40
12013;DHT22;6065;48.138;16.402;2023-10-08T07:23:04;20.90;83.20
12013;DHT22;6065;48.138;16.402;2023-10-08T07:25:35;20.90;83.30
12013;DHT22;6065;48.138;16.402;2023-10-08T07:28:04;21.00;83.30
12013;DHT22;6065;48.138;16.402;2023-10-08T07:30:37;21.00;83.30
12013;DHT22;6065;48.138;16.402;2023-10-08T07:33:10;21.00;83.50
12013;DHT22;6065;48.138;16.402;2023-10-08T07:35:43;21.00;83.50
12013;DHT22;6065;48.138;16.402;2023-10-08T07:38:17;21.00;83.60
12013;DHT22;6065;48.138;16.402;2023-10-08T07:40:43;21.00;83.80
12013;DHT22;6065;48.138;16.402;2023-10-08T07:43:10;21.00;84.10
12013;DHT22;6065;48.138;16.402;2023-10-08T07:45:38;21.00;84.10
12013;DHT22;6065;48.138;16.402;2023-10-08T07:48:05;21.10;84.20
12013;DHT22;6065;48.138;16.402;2023-10-08T07:50:42;21.10;84.10
12013;DHT22;6065;48.138;16.402;2023-10-08T07:53:13;21.10;84.10
12013;DHT22;6065;48.138;16.402;2023-10-08T07:55:44;21.20;84.30
12013;DHT22;6065;48.138;16.402;2023-10-08T07:58:14;21.30;84.40
12013;DHT22;6065;48.138;16.402;2023-10-08T08:00:42;21.30;84.40
12013;DHT22;6065;48.138;16.402;2023-10-08T08:03:20;21.20;84.40
12013;DHT22;6065;48.138;16.402;2023-10-08T08:05:48;21.30;84.30
12013;DHT22;6065;48.138;16.402;2023-10-08T08:08:19;21.30;84.40
12013;DHT22;6065;48.138;16.402;2023-10-08T08:10:49;21.30;84.40
12013;DHT22;6065;48.138;16.402;2023-10-08T08:13:24;21.30;84.40
12013;DHT22;6065;48.138;16.402;2023-10-08T08:15:54;21.40;84.40
12013;DHT22;6065;48.138;16.402;2023-10-08T08:18:26;21.30;84.30
12013;DHT22;6065;48.138;16.402;2023-10-08T08:21:10;21.40;84.50
12013;DHT22;6065;48.138;16.402;2023-10-08T08:23:43;21.30;84.60
12013;DHT22;6065;48.138;16.402;2023-10-08T08:26:14;21.20;84.80
12013;DHT22;6065;48.138;16.402;2023-10-08T08:28:52;21.20;85.10
12013;DHT22;6065;48.138;16.402;2023-10-08T08:31:20;21.20;85.10
12013;DHT22;6065;48.138;16.402;2023-10-08T08:33:47;21.20;85.10
12013;DHT22;6065;48.138;16.402;2023-10-08T08:36:35;21.20;85.30
12013;DHT22;6065;48.138;16.402;2023-10-08T08:39:04;21.10;85.20
12013;DHT22;6065;48.138;16.402;2023-10-08T08:41:36;21.20;85.50
12013;DHT22;6065;48.138;16.402;2023-10-08T08:44:03;21.20;85.70
12013;DHT22;6065;48.138;16.402;2023-10-08T08:46:37;21.20;85.90
12013;DHT22;6065;48.138;16.402;2023-10-08T08:49:08;21.20;86.10
12013;DHT22;6065;48.138;16.402;2023-10-08T08:51:38;21.10;86.70
12013;DHT22;6065;48.138;16.402;2023-10-08T08:54:06;21.10;86.70
12013;DHT22;6065;48.138;16.402;2023-10-08T08:56:42;21.10;86.70
12013;DHT22;6065;48.138;16.402;2023-10-08T08:59:10;21.10;86.90
12013;DHT22;6065;48.138;16.402;2023-10-08T09:01:44;21.00;86.70
12013;DHT22;6065;48.138;16.402;2023-10-08T09:04:11;21.00;87.30
12013;DHT22;6065;48.138;16.402;2023-10-08T09:06:47;21.00;87.70
12013;DHT22;6065;48.138;16.402;2023-10-08T09:09:14;21.00;88.00
12013;DHT22;6065;48.138;16.402;2023-10-08T09:11:47;20.90;88.30
12013;DHT22;6065;48.138;16.402;2023-10-08T09:14:17;20.90;88.50
12013;DHT22;6065;48.138;16.402;2023-10-08T09:16:49;20.80;89.70
12013;DHT22;6065;48.138;16.402;2023-10-08T09:19:16;20.80;91.20
12013;DHT22;6065;48.138;16.402;2023-10-08T09:21:47;20.80;92.20
12013;DHT22;6065;48.138;16.402;2023-10-08T09:24:25;20.70;92.70
12013;DHT22;6065;48.138;16.402;2023-10-08T09:26:58;20.60;92.80
12013;DHT22;6065;48.138;16.402;2023-10-08T09:29:35;20.50;93.10
12013;DHT22;6065;48.138;16.402;2023-10-08T09:32:07;20.40;93.10
12013;DHT22;6065;48.138;16.402;2023-10-08T09:34:48;20.30;93.10
12013;DHT22;6065;48.138;16.402;2023-10-08T09:37:24;20.20;92.90
12013;DHT22;6065;48.138;16.402;2023-10-08T09:39:57;20.10;92.90
12013;DHT22;6065;48.138;16.402;2023-10-08T09:42:24;20.00;93.00
12013;DHT22;6065;48.138;16.402;2023-10-08T09:44:51;19.90;92.90
12013;DHT22;6065;48.138;16.402;2023-10-08T09:47:21;19.90;92.80
12013;DHT22;6065;48.138;16.402;2023-10-08T09:49:59;19.90;92.80
12013;DHT22;6065;48.138;16.402;2023-10-08T09:52:36;19.80;92.90
12013;DHT22;6065;48.138;16.402;2023-10-08T09:55:09;19.70;92.90
12013;DHT22;6065;48.138;16.402;2023-10-08T09:57:36;19.60;93.00
12013;DHT22;6065;48.138;16.402;2023-10-08T10:00:06;19.60;93.10
12013;DHT22;6065;48.138;16.402;2023-10-08T10:02:39;19.50;93.10
12013;DHT22;6065;48.138;16.402;2023-10-08T10:05:17;19.50;93.20
12013;DHT22;6065;48.138;16.402;2023-10-08T10:07:57;19.50;93.20
12013;DHT22;6065;48.138;16.402;2023-10-08T10:10:30;19.40;93.20
12013;DHT22;6065;48.138;16.402;2023-10-08T10:12:58;19.30;93.20
12013;DHT22;6065;48.138;16.402;2023-10-08T10:15:26;19.30;93.00
12013;DHT22;6065;48.138;16.402;2023-10-08T10:18:08;19.30;93.00
12013;DHT22;6065;48.138;16.402;2023-10-08T10:20:39;19.20;93.20
12013;DHT22;6065;48.138;16.402;2023-10-08T10:36:19;18.70;94.00
12013;DHT22;6065;48.138;16.402;2023-10-08T10:38:49;18.60;94.00
12013;DHT22;6065;48.138;16.402;2023-10-08T10:41:20;18.50;94.00
12013;DHT22;6065;48.138;16.402;2023-10-08T10:43:52;18.50;94.00
12013;DHT22;6065;48.138;16.402;2023-10-08T10:46:50;18.40;94.00
12013;DHT22;6065;48.138;16.402;2023-10-08T10:49:16;18.40;94.00
12013;DHT22;6065;48.138;16.402;2023-10-08T10:51:58;18.40;94.10
12013;DHT22;6065;48.138;16.402;2023-10-08T11:12:28;18.10;94.60
12013;DHT22;6065;48.138;16.402;2023-10-08T11:15:15;18.00;94.80
12013;DHT22;6065;48.138;16.402;2023-10-08T11:17:43;18.10;94.80
12013;DHT22;6065;48.138;16.402;2023-10-08T11:20:25;18.00;94.80
12013;DHT22;6065;48.138;16.402;2023-10-08T11:22:52;18.00;94.80
12013;DHT22;6065;48.138;16.402;2023-10-08T11:25:42;18.00;95.00
12013;DHT22;6065;48.138;16.402;2023-10-08T11:28:20;17.90;94.80
12013;DHT22;6065;48.138;16.402;2023-10-08T11:30:47;17.80;95.20
12013;DHT22;6065;48.138;16.402;2023-10-08T11:33:23;17.80;95.30
12013;DHT22;6065;48.138;16.402;2023-10-08T11:35:56;17.70;95.50
12013;DHT22;6065;48.138;16.402;2023-10-08T11:38:44;17.70;95.90
12013;DHT22;6065;48.138;16.402;2023-10-08T11:41:14;17.60;96.00
12013;DHT22;6065;48.138;16.402;2023-10-08T11:43:48;17.60;96.20
12013;DHT22;6065;48.138;16.402;2023-10-08T11:46:20;17.50;96.40
12013;DHT22;6065;48.138;16.402;2023-10-08T11:48:49;17.50;96.60
12013;DHT22;6065;48.138;16.402;2023-10-08T11:51:16;17.50;96.50
12013;DHT22;6065;48.138;16.402;2023-10-08T11:53:43;17.40;96.60
12013;DHT22;6065;48.138;16.402;2023-10-08T11:56:11;17.30;96.60
12013;DHT22;6065;48.138;16.402;2023-10-08T11:58:39;17.30;96.30
12013;DHT22;6065;48.138;16.402;2023-10-08T12:01:10;17.30;96.50
12013;DHT22;6065;48.138;16.402;2023-10-08T12:03:41;17.20;96.40
12013;DHT22;6065;48.138;16.402;2023-10-08T12:06:09;17.10;96.60
12013;DHT22;6065;48.138;16.402;2023-10-08T12:08:41;17.00;96.60
12013;DHT22;6065;48.138;16.402;2023-10-08T12:11:10;17.00;96.90
12013;DHT22;6065;48.138;16.402;2023-10-08T12:13:38;16.90;97.00
12013;DHT22;6065;48.138;16.402;2023-10-08T12:16:13;16.90;97.10
12013;DHT22;6065;48.138;16.402;2023-10-08T12:18:46;16.80;97.20
12013;DHT22;6065;48.138;16.402;2023-10-08T12:23:53;16.70;97.70
12013;DHT22;6065;48.138;16.402;2023-10-08T12:26:27;16.60;97.60
12013;DHT22;6065;48.138;16.402;2023-10-08T12:28:55;16.60;97.50
12013;DHT22;6065;48.138;16.402;2023-10-08T12:31:27;16.60;97.60
12013;DHT22;6065;48.138;16.402;2023-10-08T12:33:54;16.60;97.50
12013;DHT22;6065;48.138;16.402;2023-10-08T12:36:28;16.50;97.10
12013;DHT22;6065;48.138;16.402;2023-10-08T12:38:58;16.50;97.20
12013;DHT22;6065;48.138;16.402;2023-10-08T12:41:33;16.40;96.80
12013;DHT22;6065;48.138;16.402;2023-10-08T12:44:04;16.30;96.80
12013;DHT22;6065;48.138;16.402;2023-10-08T12:46:34;16.20;96.60
12013;DHT22;6065;48.138;16.402;2023-10-08T12:49:01;16.20;96.70
12013;DHT22;6065;48.138;16.402;2023-10-08T12:51:30;16.10;96.90
12013;DHT22;6065;48.138;16.402;2023-10-08T12:53:58;16.10;97.00
12013;DHT22;6065;48.138;16.402;2023-10-08T12:56:29;16.10;96.90
12013;DHT22;6065;48.138;16.402;2023-10-08T12:59:03;16.00;96.90
12013;DHT22;6065;48.138;16.402;2023-10-08T13:01:32;15.90;97.10
12013;DHT22;6065;48.138;16.402;2023-10-08T13:04:09;15.90;97.50
12013;DHT22;6065;48.138;16.402;2023-10-08T13:06:41;15.90;97.40
12013;DHT22;6065;48.138;16.402;2023-10-08T13:09:10;15.90;97.10
12013;DHT22;6065;48.138;16.402;2023-10-08T13:11:41;15.90;96.90
12013;DHT22;6065;48.138;16.402;2023-10-08T13:14:08;15.90;97.00
12013;DHT22;6065;48.138;16.402;2023-10-08T13:16:37;15.90;96.70
12013;DHT22;6065;48.138;16.402;2023-10-08T13:19:16;15.80;96.70
12013;DHT22;6065;48.138;16.402;2023-10-08T13:21:47;15.70;96.40
12013;DHT22;6065;48.138;16.402;2023-10-08T13:24:20;15.70;96.60
12013;DHT22;6065;48.138;16.402;2023-10-08T13:29:39;15.60;96.90
12013;DHT22;6065;48.138;16.402;2023-10-08T13:32:12;15.60;96.90
12013;DHT22;6065;48.138;16.402;2023-10-08T13:34:43;15.60;96.90
12013;DHT22;6065;48.138;16.402;2023-10-08T13:37:11;15.50;96.90
12013;DHT22;6065;48.138;16.402;2023-10-08T13:39:39;15.40;97.10
12013;DHT22;6065;48.138;16.402;2023-10-08T13:42:07;15.40;97.20
12013;DHT22;6065;48.138;16.402;2023-10-08T13:44:41;15.50;97.00
12013;DHT22;6065;48.138;16.402;2023-10-08T13:47:16;15.40;97.00
12013;DHT22;6065;48.138;16.402;2023-10-08T13:49:46;15.40;97.00
12013;DHT22;6065;48.138;16.402;2023-10-08T13:52:15;15.50;97.10
12013;DHT22;6065;48.138;16.402;2023-10-08T13:54:43;15.50;97.00
12013;DHT22;6065;48.138;16.402;2023-10-08T13:57:17;15.40;97.00
12013;DHT22;6065;48.138;16.402;2023-10-08T13:59:46;15.40;96.90
12013;DHT22;6065;48.138;16.402;2023-10-08T14:02:13;15.40;96.40
12013;DHT22;6065;48.138;16.402;2023-10-08T14:05:06;15.40;96.40
12013;DHT22;6065;48.138;16.402;2023-10-08T14:07:34;15.40;96.40
12013;DHT22;6065;48.138;16.402;2023-10-08T14:10:04;15.40;96.50
12013;DHT22;6065;48.138;16.402;2023-10-08T14:12:34;15.40;96.30
12013;DHT22;6065;48.138;16.402;2023-10-08T14:15:01;15.40;96.10
12013;DHT22;6065;48.138;16.402;2023-10-08T14:17:35;15.40;96.10
12013;DHT22;6065;48.138;16.402;2023-10-08T14:20:23;15.40;95.80
12013;DHT22;6065;48.138;16.402;2023-10-08T14:22:57;15.30;95.70
12013;DHT22;6065;48.138;16.402;2023-10-08T14:25:27;15.30;96.00
12013;DHT22;6065;48.138;16.402;2023-10-08T14:27:58;15.40;96.20
12013;DHT22;6065;48.138;16.402;2023-10-08T14:30:32;15.40;96.40
12013;DHT22;6065;48.138;16.402;2023-10-08T14:33:06;15.40;96.60
12013;DHT22;6065;48.138;16.402;2023-10-08T14:35:36;15.40;96.70
12013;DHT22;6065;48.138;16.402;2023-10-08T14:38:20;15.30;97.00
12013;DHT22;6065;48.138;16.402;2023-10-08T14:41:05;15.20;97.40
12013;DHT22;6065;48.138;16.402;2023-10-08T14:43:49;15.20;97.50
12013;DHT22;6065;48.138;16.402;2023-10-08T14:46:19;15.20;97.70
12013;DHT22;6065;48.138;16.402;2023-10-08T14:48:46;15.20;97.90
12013;DHT22;6065;48.138;16.402;2023-10-08T14:51:17;15.10;98.00
12013;DHT22;6065;48.138;16.402;2023-10-08T14:53:50;15.10;98.00
12013;DHT22;6065;48.138;16.402;2023-10-08T14:56:17;15.10;97.80
12013;DHT22;6065;48.138;16.402;2023-10-08T14:58:51;15.10;98.00
12013;DHT22;6065;48.138;16.402;2023-10-08T15:01:18;15.00;98.20
12013;DHT22;6065;48.138;16.402;2023-10-08T15:03:45;15.00;98.20
12013;DHT22;6065;48.138;16.402;2023-10-08T15:06:12;15.10;98.10
12013;DHT22;6065;48.138;16.402;2023-10-08T15:08:40;15.10;97.80
12013;DHT22;6065;48.138;16.402;2023-10-08T15:11:08;15.10;97.50
12013;DHT22;6065;48.138;16.402;2023-10-08T15:13:36;15.00;97.30
12013;DHT22;6065;48.138;16.402;2023-10-08T15:16:04;15.00;97.40
12013;DHT22;6065;48.138;16.402;2023-10-08T15:18:34;15.00;97.50
12013;DHT22;6065;48.138;16.402;2023-10-08T15:21:07;15.00;97.60
12013;DHT22;6065;48.138;16.402;2023-10-08T15:23:37;15.00;97.60
12013;DHT22;6065;48.138;16.402;2023-10-08T15:26:05;15.00;97.80
12013;DHT22;6065;48.138;16.402;2023-10-08T15:28:32;15.00;97.90
12013;DHT22;6065;48.138;16.402;2023-10-08T15:30:59;15.00;98.10
12013;DHT22;6065;48.138;16.402;2023-10-08T15:33:26;15.00;98.30
12013;DHT22;6065;48.138;16.402;2023-10-08T15:35:52;15.00;98.20
12013;DHT22;6065;48.138;16.402;2023-10-08T15:38:26;14.90;98.20
12013;DHT22;6065;48.138;16.402;2023-10-08T15:40:53;14.90;98.20
12013;DHT22;6065;48.138;16.402;2023-10-08T15:43:23;14.90;98.10
12013;DHT22;6065;48.138;16.402;2023-10-08T15:45:51;14.80;98.00
12013;DHT22;6065;48.138;16.402;2023-10-08T15:48:28;14.80;98.00
12013;DHT22;6065;48.138;16.402;2023-10-08T15:51:09;14.80;98.10
12013;DHT22;6065;48.138;16.402;2023-10-08T15:53:46;14.70;98.20
12013;DHT22;6065;48.138;16.402;2023-10-08T15:56:13;14.80;98.20
12013;DHT22;6065;48.138;16.402;2023-10-08T15:58:41;14.80;98.00
12013;DHT22;6065;48.138;16.402;2023-10-08T16:01:08;14.80;98.10
12013;DHT22;6065;48.138;16.402;2023-10-08T16:03:37;14.80;98.00
12013;DHT22;6065;48.138;16.402;2023-10-08T16:06:04;14.70;98.20
12013;DHT22;6065;48.138;16.402;2023-10-08T16:08:43;14.70;98.40
12013;DHT22;6065;48.138;16.402;2023-10-08T16:11:14;14.70;98.30
12013;DHT22;6065;48.138;16.402;2023-10-08T16:13:42;14.70;98.50
12013;DHT22;6065;48.138;16.402;2023-10-08T16:16:09;14.60;98.50
12013;DHT22;6065;48.138;16.402;2023-10-08T16:18:40;14.60;98.70
12013;DHT22;6065;48.138;16.402;2023-10-08T16:21:07;14.60;98.70
12013;DHT22;6065;48.138;16.402;2023-10-08T16:23:38;14.70;98.80
12013;DHT22;6065;48.138;16.402;2023-10-08T16:26:06;14.70;98.40
12013;DHT22;6065;48.138;16.402;2023-10-08T16:28:37;14.60;98.40
12013;DHT22;6065;48.138;16.402;2023-10-08T16:31:06;14.60;98.50
12013;DHT22;6065;48.138;16.402;2023-10-08T16:33:33;14.60;98.50
12013;DHT22;6065;48.138;16.402;2023-10-08T16:36:00;14.60;98.50